Main page
Satellite images 15-day forecastsClimateMarine weather Cyclones Lightning AirportsFAQ Newsletter About
Weather : Europe Africa North America South America Asia Australia-Oceania Others
Languages Contact

Buenos Aires, Argentina

Aeroparque Jorge Newbery

latitude: 34-34S, longitude: 058-25W, elevation: 6 m


METAR: SABE 212300Z 36008KT CAVOK 24/17 Q1016
TAF: SABE 212300Z 2200/2224 36010KT CAVOK TX26/2218Z TN18/2210Z

Time: 20:59 (23:59 UTC)

Current weather observation

The report was made 59 minutes ago, at 23:00 UTC
Wind 8 kt from the North
Temperature 24°C
Humidity 65%
Pressure 1016 hPa
Visibility 10 km or more
no clouds below 1500 m and no cumulonimbus

Change units

Forecast

The report was made 59 minutes ago, at 23:00 UTC
Forecast valid from 22 at 00 UTC to 22 at 24 UTC
Wind 10 kt from the North
Visibility 10 km or more
no clouds below 1500 m and no cumulonimbus
The information on this site is subject to a disclaimer
Weather : Europe Africa North America South America Asia Australia-Oceania Others
Satellite images 15-day forecastsClimateMarine weather Cyclones Lightning AirportsFAQ Languages Contact Newsletter About